createdAt,value
2022-08-28T00:02:15.395Z,11.75
2022-08-28T00:04:44.067Z,11.00
2022-08-28T00:07:13.041Z,11.52
2022-08-28T00:09:42.343Z,10.73
2022-08-28T00:12:11.693Z,12.45
2022-08-28T00:14:40.588Z,11.95
2022-08-28T00:17:08.970Z,10.63
2022-08-28T00:19:39.001Z,11.45
2022-08-28T00:22:07.686Z,11.43
2022-08-28T00:24:36.931Z,10.45
2022-08-28T00:27:23.180Z,10.48
2022-08-28T00:29:51.463Z,11.52
2022-08-28T00:32:23.417Z,10.70
2022-08-28T00:34:53.322Z,9.50
2022-08-28T00:37:24.135Z,10.88
2022-08-28T00:39:53.874Z,10.45
2022-08-28T00:42:22.789Z,10.15
2022-08-28T00:44:51.121Z,11.90
2022-08-28T00:47:19.391Z,10.95
2022-08-28T00:49:50.454Z,11.65
2022-08-28T00:52:21.236Z,10.85
2022-08-28T00:54:58.842Z,11.05
2022-08-28T00:57:30.752Z,11.75
2022-08-28T00:59:59.085Z,11.80
2022-08-28T01:02:27.855Z,11.63
2022-08-28T01:04:56.884Z,10.70
2022-08-28T01:07:26.664Z,10.77
2022-08-28T01:09:56.691Z,11.90
2022-08-28T01:12:28.451Z,11.05
2022-08-28T01:15:00.101Z,10.65
2022-08-28T01:17:32.189Z,12.13
2022-08-28T01:20:03.990Z,11.95
2022-08-28T01:22:38.140Z,11.45
2022-08-28T01:25:12.336Z,11.45
2022-08-28T01:27:42.147Z,11.48
2022-08-28T01:30:12.458Z,12.27
2022-08-28T01:32:43.093Z,10.68
2022-08-28T01:35:14.863Z,12.63
2022-08-28T01:37:43.662Z,11.48
2022-08-28T01:40:17.691Z,10.10
2022-08-28T01:42:46.234Z,10.45
2022-08-28T01:45:21.956Z,9.98
2022-08-28T01:47:51.375Z,10.93
2022-08-28T01:50:21.955Z,10.43
2022-08-28T01:52:50.442Z,10.80
2022-08-28T01:55:21.457Z,11.98
2022-08-28T01:57:53.025Z,10.95
2022-08-28T02:00:25.774Z,10.30
2022-08-28T02:02:56.096Z,11.00
2022-08-28T02:05:25.464Z,11.48
2022-08-28T02:07:54.132Z,10.77
2022-08-28T02:10:25.350Z,9.70
2022-08-28T02:12:55.382Z,11.00
2022-08-28T02:15:29.449Z,11.10
2022-08-28T02:17:58.851Z,9.82
2022-08-28T02:20:28.631Z,10.27
2022-08-28T02:22:57.780Z,10.82
2022-08-28T02:25:29.259Z,10.88
2022-08-28T02:27:57.843Z,11.23
2022-08-28T02:30:26.305Z,11.77
2022-08-28T02:32:55.110Z,11.07
2022-08-28T02:35:24.084Z,10.65
2022-08-28T02:37:54.463Z,11.20
2022-08-28T02:40:26.616Z,10.38
2022-08-28T02:42:55.260Z,12.35
2022-08-28T02:45:23.662Z,12.07
2022-08-28T02:47:54.157Z,10.48
2022-08-28T02:50:22.860Z,11.52
2022-08-28T02:52:51.359Z,11.23
2022-08-28T02:55:20.858Z,11.65
2022-08-28T02:57:50.882Z,11.77
2022-08-28T03:00:22.344Z,11.13
2022-08-28T03:02:51.483Z,10.18
2022-08-28T03:05:21.954Z,10.93
2022-08-28T03:07:53.220Z,10.98
2022-08-28T03:10:22.709Z,11.55
2022-08-28T03:12:52.837Z,9.73
2022-08-28T03:15:21.496Z,9.80
2022-08-28T03:17:49.897Z,11.32
2022-08-28T03:20:19.431Z,10.55
2022-08-28T03:23:05.268Z,11.07
2022-08-28T03:25:33.898Z,10.30
2022-08-28T03:28:03.835Z,11.35
2022-08-28T03:30:32.158Z,11.48
2022-08-28T03:33:01.177Z,10.50
2022-08-28T03:35:29.334Z,10.82
2022-08-28T03:37:57.497Z,10.52
2022-08-28T03:40:25.903Z,11.13
2022-08-28T03:42:54.166Z,11.88
2022-08-28T03:45:24.092Z,10.20
2022-08-28T03:47:54.173Z,10.35
2022-08-28T03:50:22.600Z,10.45
2022-08-28T03:52:52.977Z,11.73
2022-08-28T03:55:22.634Z,11.50
2022-08-28T03:57:51.649Z,10.45
2022-08-28T04:00:20.435Z,10.98
2022-08-28T04:02:50.087Z,11.43
2022-08-28T04:05:18.671Z,11.27
2022-08-28T04:07:46.967Z,10.07
2022-08-28T04:10:15.303Z,10.90
2022-08-28T04:12:43.730Z,10.55
2022-08-28T04:15:12.861Z,10.90
2022-08-28T04:17:42.302Z,11.35
2022-08-28T04:20:12.772Z,11.52
2022-08-28T04:22:41.578Z,11.60
2022-08-28T04:25:10.283Z,10.95
2022-08-28T04:27:38.552Z,11.95
2022-08-28T04:30:09.955Z,10.40
2022-08-28T04:32:39.888Z,10.57
2022-08-28T04:35:13.151Z,10.88
2022-08-28T04:37:43.723Z,11.50
2022-08-28T04:40:14.937Z,11.00
2022-08-28T04:42:45.209Z,10.02
2022-08-28T04:45:13.664Z,11.73
2022-08-28T04:47:42.003Z,10.35
2022-08-28T04:50:12.783Z,10.95
2022-08-28T04:52:43.189Z,10.95
2022-08-28T04:55:11.753Z,9.75
2022-08-28T04:57:40.159Z,10.82
2022-08-28T05:00:11.636Z,10.18
2022-08-28T05:02:40.099Z,11.43
2022-08-28T05:05:09.081Z,10.32
2022-08-28T05:07:38.865Z,10.55
2022-08-28T05:10:07.722Z,10.85
2022-08-28T05:12:37.301Z,10.77
2022-08-28T05:15:06.504Z,10.27
2022-08-28T05:17:35.209Z,11.20
2022-08-28T05:20:03.917Z,10.02
2022-08-28T05:22:32.448Z,11.05
2022-08-28T05:25:02.154Z,10.27
2022-08-28T05:27:30.773Z,11.35
2022-08-28T05:30:01.896Z,10.60
2022-08-28T05:32:30.498Z,10.77
2022-08-28T05:34:58.985Z,11.07
2022-08-28T05:37:27.722Z,10.18
2022-08-28T05:39:56.329Z,10.52
2022-08-28T05:42:30.542Z,11.43
2022-08-28T05:45:00.068Z,11.65
2022-08-28T05:47:28.263Z,10.45
2022-08-28T05:49:56.748Z,11.38
2022-08-28T05:52:25.189Z,11.93
2022-08-28T05:54:54.013Z,11.80
2022-08-28T05:57:22.374Z,10.48
2022-08-28T05:59:52.230Z,12.70
2022-08-28T06:02:20.615Z,10.65
2022-08-28T06:04:49.582Z,9.90
2022-08-28T06:07:18.139Z,11.20
2022-08-28T06:09:46.804Z,11.55
2022-08-28T06:12:15.739Z,11.40
2022-08-28T06:14:44.320Z,11.40
2022-08-28T06:17:14.919Z,11.55
2022-08-28T06:19:43.198Z,11.43
2022-08-28T06:22:14.841Z,11.43
2022-08-28T06:24:43.677Z,11.65
2022-08-28T06:27:13.042Z,10.68
2022-08-28T06:29:41.470Z,10.80
2022-08-28T06:32:09.927Z,10.05
2022-08-28T06:34:39.866Z,9.88
2022-08-28T06:37:09.899Z,12.15
2022-08-28T06:39:38.159Z,10.50
2022-08-28T06:42:06.886Z,10.95
2022-08-28T06:44:35.562Z,10.52
2022-08-28T06:47:04.092Z,11.35
2022-08-28T06:49:32.230Z,10.05
2022-08-28T06:52:02.419Z,11.30
2022-08-28T06:54:32.018Z,11.18
2022-08-28T06:57:00.248Z,11.75
2022-08-28T06:59:28.901Z,11.85
2022-08-28T07:01:57.185Z,11.10
2022-08-28T07:04:25.748Z,11.23
2022-08-28T07:06:54.986Z,11.38
2022-08-28T07:09:25.192Z,10.48
2022-08-28T07:11:53.930Z,10.27
2022-08-28T07:14:22.206Z,10.43
2022-08-28T07:16:51.714Z,10.27
2022-08-28T07:19:20.560Z,10.95
2022-08-28T07:21:49.115Z,10.73
2022-08-28T07:24:18.690Z,10.52
2022-08-28T07:26:48.968Z,11.35
2022-08-28T07:29:17.461Z,11.25
2022-08-28T07:31:49.582Z,12.38
2022-08-28T07:34:20.465Z,12.20
2022-08-28T07:36:51.855Z,11.30
2022-08-28T07:39:20.407Z,12.20
2022-08-28T07:41:50.461Z,11.02
2022-08-28T07:44:36.353Z,11.80
2022-08-28T07:47:06.936Z,10.68
2022-08-28T07:49:37.713Z,11.18
2022-08-28T07:52:07.605Z,11.65
2022-08-28T07:54:37.482Z,13.02
2022-08-28T07:57:09.622Z,12.13
2022-08-28T07:59:41.069Z,12.18
2022-08-28T08:02:11.939Z,11.27
2022-08-28T08:04:41.001Z,11.80
2022-08-28T08:07:09.599Z,10.80
2022-08-28T08:09:41.447Z,11.30
2022-08-28T08:12:12.624Z,12.02
2022-08-28T08:14:41.849Z,11.23
2022-08-28T08:17:11.160Z,12.18
2022-08-28T08:19:40.894Z,13.02
2022-08-28T08:22:09.381Z,12.10
2022-08-28T08:24:37.870Z,11.02
2022-08-28T08:27:06.786Z,10.98
2022-08-28T08:29:38.754Z,11.38
2022-08-28T08:32:08.964Z,10.77
2022-08-28T08:34:39.728Z,11.43
2022-08-28T08:37:08.911Z,12.30
2022-08-28T08:39:38.807Z,12.93
2022-08-28T08:42:25.499Z,11.73
2022-08-28T08:44:57.606Z,11.10
2022-08-28T08:47:36.631Z,10.93
2022-08-28T08:50:10.108Z,11.40
2022-08-28T08:52:46.135Z,11.20
2022-08-28T08:55:24.109Z,10.20
2022-08-28T08:58:02.543Z,12.13
2022-08-28T09:00:34.946Z,11.27
2022-08-28T09:03:07.546Z,14.02
2022-08-28T09:05:49.029Z,16.48
2022-08-28T09:08:27.022Z,15.93
2022-08-28T09:11:03.029Z,16.50
2022-08-28T09:13:40.660Z,15.23
2022-08-28T09:16:22.194Z,14.95
2022-08-28T09:18:51.078Z,14.07
2022-08-28T09:21:30.257Z,13.40
2022-08-28T09:24:10.880Z,15.02
2022-08-28T09:26:40.901Z,16.45
2022-08-28T09:29:18.017Z,16.08
2022-08-28T09:31:47.951Z,16.15
2022-08-28T09:34:24.794Z,15.15
2022-08-28T09:36:53.961Z,13.75
2022-08-28T09:39:24.813Z,14.68
2022-08-28T09:42:17.379Z,14.88
2022-08-28T09:45:09.125Z,15.48
2022-08-28T09:47:46.881Z,14.60
2022-08-28T09:50:34.715Z,13.68
2022-08-28T09:53:18.865Z,14.95
2022-08-28T09:55:56.485Z,12.27
2022-08-28T09:58:31.560Z,12.80
2022-08-28T10:01:06.257Z,15.18
2022-08-28T10:03:45.397Z,12.60
2022-08-28T10:06:22.478Z,14.85
2022-08-28T10:09:03.136Z,16.20
2022-08-28T10:11:44.385Z,14.63
2022-08-28T10:14:24.047Z,14.07
2022-08-28T10:17:02.046Z,13.45
2022-08-28T10:19:42.112Z,14.00
2022-08-28T10:22:24.637Z,16.50
2022-08-28T10:25:02.820Z,15.40
2022-08-28T10:27:45.164Z,14.43
2022-08-28T10:30:17.518Z,14.75
2022-08-28T10:33:15.597Z,15.05
2022-08-28T10:35:53.057Z,14.43
2022-08-28T10:38:37.341Z,15.18
2022-08-28T10:41:09.877Z,14.23
2022-08-28T10:43:43.296Z,14.43
2022-08-28T10:46:15.612Z,14.55
2022-08-28T10:48:48.906Z,15.30
2022-08-28T10:51:35.430Z,15.13
2022-08-28T10:54:08.886Z,15.38
2022-08-28T10:56:41.783Z,14.43
2022-08-28T10:59:10.084Z,15.25
2022-08-28T11:01:42.688Z,15.85
2022-08-28T11:04:25.193Z,16.25
2022-08-28T11:06:59.200Z,14.98
2022-08-28T11:09:33.751Z,16.25
2022-08-28T11:12:03.946Z,15.52
2022-08-28T11:14:35.496Z,15.75
2022-08-28T11:17:09.809Z,15.93
2022-08-28T11:20:09.373Z,17.05
2022-08-28T11:22:43.572Z,15.15
2022-08-28T11:25:17.714Z,14.82
2022-08-28T11:28:28.317Z,15.55
2022-08-28T11:31:29.679Z,15.90
2022-08-28T11:33:59.453Z,17.02
2022-08-28T11:37:03.145Z,16.77
2022-08-28T11:39:32.717Z,15.32
2022-08-28T11:42:36.244Z,15.05
2022-08-28T11:45:06.372Z,13.43
2022-08-28T11:47:40.429Z,12.52
2022-08-28T11:50:17.371Z,13.80
2022-08-28T11:53:10.707Z,14.32
2022-08-28T11:55:56.702Z,13.95
2022-08-28T11:58:34.942Z,12.38
2022-08-28T12:01:07.573Z,14.38
2022-08-28T12:03:39.476Z,14.23
2022-08-28T12:06:08.726Z,14.88
2022-08-28T12:09:10.796Z,13.50
2022-08-28T12:11:59.153Z,14.25
2022-08-28T12:15:08.643Z,16.27
2022-08-28T12:17:47.016Z,15.60
2022-08-28T12:20:41.167Z,15.68
2022-08-28T12:23:37.721Z,16.23
2022-08-28T12:26:09.923Z,15.40
2022-08-28T12:28:47.931Z,15.68
2022-08-28T12:32:12.700Z,14.98
2022-08-28T12:34:47.868Z,15.82
2022-08-28T12:37:50.946Z,14.45
2022-08-28T12:40:24.027Z,13.57
2022-08-28T12:42:55.965Z,16.13
2022-08-28T12:45:28.867Z,16.33
2022-08-28T12:48:01.156Z,16.35
2022-08-28T12:50:32.934Z,15.88
2022-08-28T12:53:04.844Z,15.05
2022-08-28T12:55:33.864Z,14.50
2022-08-28T12:58:02.266Z,14.65
2022-08-28T13:00:34.914Z,13.63
2022-08-28T13:03:04.357Z,15.48
2022-08-28T13:05:35.527Z,15.27
2022-08-28T13:08:06.902Z,15.07
2022-08-28T13:10:38.490Z,15.52
2022-08-28T13:13:10.962Z,15.15
2022-08-28T13:15:56.026Z,14.02
2022-08-28T13:18:50.273Z,12.85
2022-08-28T13:21:35.322Z,16.35
2022-08-28T13:24:26.305Z,14.52
2022-08-28T13:27:06.654Z,14.50
2022-08-28T13:29:35.456Z,12.38
2022-08-28T13:32:08.772Z,14.90
2022-08-28T13:34:38.403Z,14.27
2022-08-28T13:37:20.187Z,16.00
2022-08-28T13:39:48.862Z,14.82
2022-08-28T13:42:19.085Z,16.00
2022-08-28T13:44:50.568Z,15.13
2022-08-28T13:47:20.617Z,14.82
2022-08-28T13:49:49.079Z,13.68
2022-08-28T13:52:17.581Z,14.63
2022-08-28T13:54:46.824Z,13.35
2022-08-28T13:57:15.513Z,15.30
2022-08-28T13:59:43.861Z,14.50
2022-08-28T14:02:32.085Z,14.32
2022-08-28T14:05:01.885Z,14.50
2022-08-28T14:07:30.466Z,15.38
2022-08-28T14:09:58.878Z,16.35
2022-08-28T14:12:32.962Z,15.63
2022-08-28T14:15:02.304Z,13.73
2022-08-28T14:17:31.027Z,15.55
2022-08-28T14:20:00.308Z,16.90
2022-08-28T14:22:31.058Z,15.40
2022-08-28T14:24:59.342Z,16.17
2022-08-28T14:27:27.557Z,17.13
2022-08-28T14:29:55.745Z,15.07
2022-08-28T14:32:23.973Z,16.90
2022-08-28T14:34:52.239Z,14.20
2022-08-28T14:37:21.629Z,15.02
2022-08-28T14:39:51.400Z,14.55
2022-08-28T14:42:19.902Z,14.90
2022-08-28T14:44:48.125Z,16.27
2022-08-28T14:47:16.625Z,14.13
2022-08-28T14:49:45.282Z,15.98
2022-08-28T14:52:13.559Z,16.42
2022-08-28T14:54:41.766Z,14.23
2022-08-28T14:57:12.548Z,16.38
2022-08-28T14:59:40.937Z,13.60
2022-08-28T15:02:09.307Z,15.25
2022-08-28T15:04:37.971Z,15.80
2022-08-28T15:07:09.559Z,13.20
2022-08-28T15:09:39.796Z,16.08
2022-08-28T15:12:08.308Z,14.48
2022-08-28T15:14:38.278Z,14.10
2022-08-28T15:17:06.664Z,14.13
2022-08-28T15:19:34.937Z,15.52
2022-08-28T15:22:04.263Z,16.73
2022-08-28T15:24:34.562Z,15.63
2022-08-28T15:27:04.125Z,15.13
2022-08-28T15:29:32.299Z,13.95
2022-08-28T15:32:03.739Z,15.90
2022-08-28T15:34:32.048Z,16.20
2022-08-28T15:37:01.690Z,14.85
2022-08-28T15:39:53.229Z,14.95
2022-08-28T15:42:23.242Z,16.00
2022-08-28T15:44:51.399Z,15.07
2022-08-28T15:47:21.066Z,15.75
2022-08-28T15:49:55.732Z,15.45
2022-08-28T15:52:25.836Z,14.80
2022-08-28T15:54:54.513Z,14.75
2022-08-28T15:57:22.688Z,15.15
2022-08-28T15:59:51.370Z,15.20
2022-08-28T16:02:23.149Z,14.10
2022-08-28T16:04:51.886Z,15.52
2022-08-28T16:07:22.391Z,13.15
2022-08-28T16:09:50.871Z,14.27
2022-08-28T16:12:19.749Z,15.90
2022-08-28T16:14:47.988Z,14.38
2022-08-28T16:17:16.154Z,14.95
2022-08-28T16:19:46.688Z,15.95
2022-08-28T16:22:16.680Z,15.52
2022-08-28T16:24:45.341Z,14.40
2022-08-28T16:27:15.665Z,15.43
2022-08-28T16:29:44.422Z,15.55
2022-08-28T16:32:12.811Z,15.10
2022-08-28T16:34:41.051Z,13.98
2022-08-28T16:37:19.499Z,14.57
2022-08-28T16:39:49.672Z,12.48
2022-08-28T16:42:17.969Z,12.60
2022-08-28T16:44:46.090Z,14.38
2022-08-28T16:47:14.205Z,13.90
2022-08-28T16:49:42.379Z,14.15
2022-08-28T16:52:10.493Z,12.90
2022-08-28T16:54:48.251Z,14.93
2022-08-28T16:57:17.659Z,14.82
2022-08-28T16:59:45.870Z,13.30
2022-08-28T17:02:14.118Z,12.85
2022-08-28T17:04:42.792Z,12.15
2022-08-28T17:07:10.992Z,13.27
2022-08-28T17:09:40.664Z,13.48
2022-08-28T17:12:09.199Z,12.85
2022-08-28T17:14:40.087Z,12.55
2022-08-28T17:17:08.311Z,13.25
2022-08-28T17:19:38.250Z,13.48
2022-08-28T17:22:27.072Z,12.30
2022-08-28T17:24:58.832Z,13.00
2022-08-28T17:27:27.416Z,13.48
2022-08-28T17:29:55.603Z,12.73
2022-08-28T17:32:23.785Z,14.13
2022-08-28T17:34:52.241Z,13.20
2022-08-28T17:37:20.837Z,13.60
2022-08-28T17:39:49.244Z,14.00
2022-08-28T17:42:18.762Z,13.90
2022-08-28T17:44:47.096Z,13.60
2022-08-28T17:47:15.201Z,12.88
2022-08-28T17:49:44.502Z,13.52
2022-08-28T17:52:13.801Z,11.85
2022-08-28T17:54:41.992Z,12.30
2022-08-28T17:57:10.281Z,13.07
2022-08-28T17:59:40.032Z,12.00
2022-08-28T18:02:08.371Z,12.73
2022-08-28T18:04:37.669Z,11.20
2022-08-28T18:07:06.174Z,12.40
2022-08-28T18:09:35.196Z,11.05
2022-08-28T18:12:03.727Z,10.52
2022-08-28T18:14:31.953Z,12.85
2022-08-28T18:17:01.608Z,11.98
2022-08-28T18:19:30.259Z,11.18
2022-08-28T18:21:58.645Z,12.77
2022-08-28T18:24:27.087Z,11.98
2022-08-28T18:26:55.798Z,12.20
2022-08-28T18:29:23.945Z,12.52
2022-08-28T18:31:53.498Z,11.60
2022-08-28T18:34:23.036Z,13.05
2022-08-28T18:36:51.239Z,12.68
2022-08-28T18:39:22.624Z,12.45
2022-08-28T18:41:59.190Z,11.52
2022-08-28T18:44:27.380Z,11.90
2022-08-28T18:46:55.530Z,11.27
2022-08-28T18:49:25.140Z,10.82
2022-08-28T18:51:55.253Z,12.73
2022-08-28T18:54:23.696Z,11.77
2022-08-28T18:56:51.845Z,11.18
2022-08-28T18:59:20.577Z,11.63
2022-08-28T19:01:48.890Z,10.60
2022-08-28T19:04:17.137Z,11.23
2022-08-28T19:06:46.659Z,11.20
2022-08-28T19:09:17.897Z,10.90
2022-08-28T19:11:48.919Z,11.18
2022-08-28T19:14:17.117Z,9.25
2022-08-28T19:16:45.577Z,10.15
2022-08-28T19:19:13.958Z,11.35
2022-08-28T19:21:42.618Z,11.02
2022-08-28T19:24:16.359Z,11.00
2022-08-28T19:26:45.164Z,8.25
2022-08-28T19:29:13.824Z,9.13
2022-08-28T19:31:43.761Z,10.45
2022-08-28T19:34:13.117Z,8.68
2022-08-28T19:36:42.065Z,9.88
2022-08-28T19:39:12.132Z,9.25
2022-08-28T19:41:40.758Z,9.40
2022-08-28T19:44:09.325Z,9.23
2022-08-28T19:46:38.727Z,8.82
2022-08-28T19:49:07.592Z,8.95
2022-08-28T19:51:37.007Z,9.82
2022-08-28T19:54:05.903Z,8.68
2022-08-28T19:56:37.227Z,9.35
2022-08-28T19:59:07.472Z,9.45
2022-08-28T20:01:37.840Z,8.90
2022-08-28T20:04:08.183Z,9.50
2022-08-28T20:06:38.113Z,9.77
2022-08-28T20:09:12.044Z,8.55
2022-08-28T20:11:45.067Z,8.77
2022-08-28T20:14:13.916Z,8.88
2022-08-28T20:16:44.724Z,8.02
2022-08-28T20:19:14.663Z,7.85
2022-08-28T20:21:45.146Z,8.38
2022-08-28T20:24:17.698Z,8.30
2022-08-28T20:26:47.790Z,7.38
2022-08-28T20:29:16.510Z,8.88
2022-08-28T20:31:47.841Z,8.38
2022-08-28T20:34:18.584Z,8.18
2022-08-28T20:36:47.302Z,7.70
2022-08-28T20:39:16.293Z,7.35
2022-08-28T20:41:47.063Z,8.95
2022-08-28T20:44:17.467Z,7.88
2022-08-28T20:46:47.136Z,8.18
2022-08-28T20:49:22.196Z,8.27
2022-08-28T20:52:01.248Z,9.30
2022-08-28T20:54:31.763Z,8.20
2022-08-28T20:57:04.115Z,8.30
2022-08-28T20:59:37.205Z,9.23
2022-08-28T21:02:10.957Z,8.93
2022-08-28T21:04:40.202Z,9.10
2022-08-28T21:07:08.853Z,8.25
2022-08-28T21:09:43.976Z,10.45
2022-08-28T21:12:26.776Z,8.98
2022-08-28T21:14:54.970Z,9.00
2022-08-28T21:17:28.854Z,8.15
2022-08-28T21:19:58.569Z,8.25
2022-08-28T21:22:27.212Z,9.65
2022-08-28T21:24:55.652Z,8.15
2022-08-28T21:27:24.647Z,9.85
2022-08-28T21:29:56.304Z,9.05
2022-08-28T21:32:24.525Z,8.40
2022-08-28T21:34:53.120Z,8.75
2022-08-28T21:37:21.375Z,8.40
2022-08-28T21:39:49.810Z,7.28
2022-08-28T21:42:18.286Z,8.07
2022-08-28T21:44:51.548Z,8.60
2022-08-28T21:47:23.351Z,7.55
2022-08-28T21:49:52.188Z,7.85
2022-08-28T21:52:21.977Z,7.15
2022-08-28T21:54:50.828Z,7.18
2022-08-28T21:57:19.012Z,7.22
2022-08-28T21:59:47.136Z,6.95
2022-08-28T22:02:15.806Z,7.13
2022-08-28T22:04:45.382Z,7.10
2022-08-28T22:07:14.097Z,6.63
2022-08-28T22:09:42.526Z,7.97
2022-08-28T22:12:11.687Z,6.93
2022-08-28T22:14:40.109Z,7.00
2022-08-28T22:17:11.737Z,7.43
2022-08-28T22:19:40.367Z,6.72
2022-08-28T22:22:28.078Z,7.40
2022-08-28T22:24:56.436Z,7.35
2022-08-28T22:27:24.828Z,6.70
2022-08-28T22:29:53.191Z,6.90
2022-08-28T22:32:25.471Z,7.22
2022-08-28T22:34:54.117Z,6.97
2022-08-28T22:37:24.078Z,7.90
2022-08-28T22:39:52.488Z,6.60
2022-08-28T22:42:20.682Z,6.50
2022-08-28T22:44:49.164Z,6.80
2022-08-28T22:47:19.025Z,6.57
2022-08-28T22:49:47.291Z,7.33
2022-08-28T22:52:16.517Z,6.40
2022-08-28T22:54:47.009Z,6.30
2022-08-28T22:57:20.752Z,6.87
2022-08-28T22:59:49.352Z,7.03
2022-08-28T23:02:19.328Z,6.00
2022-08-28T23:04:51.161Z,6.00
2022-08-28T23:07:20.721Z,7.77
2022-08-28T23:09:50.226Z,7.10
2022-08-28T23:12:18.605Z,7.00
2022-08-28T23:14:48.806Z,7.10
2022-08-28T23:17:17.923Z,6.53
2022-08-28T23:19:48.261Z,6.93
2022-08-28T23:22:17.569Z,6.97
2022-08-28T23:24:46.993Z,6.63
2022-08-28T23:27:35.869Z,7.13
2022-08-28T23:30:07.168Z,7.13
2022-08-28T23:32:35.509Z,6.33
2022-08-28T23:35:07.324Z,6.07
2022-08-28T23:37:36.421Z,6.93
2022-08-28T23:40:05.629Z,6.87
2022-08-28T23:42:35.606Z,7.37
2022-08-28T23:45:05.119Z,6.33
2022-08-28T23:47:33.930Z,6.27
2022-08-28T23:50:11.345Z,6.37
2022-08-28T23:52:39.926Z,7.47
2022-08-28T23:55:09.211Z,6.07
2022-08-28T23:57:39.677Z,6.67
